Latest Coastal Weather Observations for Nullarbor

IDS60701

Issued at 7:41 pm CST Wednesday 27 May 2015 (issued every 10 minutes, with the page automatically refreshed every 10 minutes)

About coastal observations | Map of coastal stations | Coastal observations for SA | Marine services | Other Formats
Station Details ID: 018106 Name: NULLARBOR Lat: -31.45 Lon: 130.90 Height: 64.0 m
Data from the previous 72 hours. | See also: Recent months at Nullarbor
Date/Time
CST
Temp

°C
Wind Pressure Rain
since 9am
mm
Weather Cloud Vis
km
Sea
Height
m
Swell
Dir
 
Speed
knots
Gust
knots
hPa Trend Height
m
Period
s
Dir
27/07:30pm 14.5 S 5 5 1019.9 - 0.2 - - 4 - - - -
27/07:26pm 14.3 S 5 6 1019.9 - 0.2 - - 7 - - - -
27/07:00pm 14.8 S 4 4 1019.9 - 0.2 - - 10 - - - -
27/06:30pm 14.7 SE 4 5 1019.8 - 0.2 - - 10 - - - -
27/06:00pm 15.9 SSE 6 8 1019.1 - 0.2 - - 10 - - - -
27/05:30pm 17.1 S 8 10 1019.0 - 0.2 - - 10 - - - -
27/05:00pm 18.3 S 9 11 1019.0 - 0.2 - - 10 - - - -
27/04:30pm 19.8 S 10 13 1019.0 - 0.2 - - 10 - - - -
27/04:00pm 20.6 SSW 8 11 1019.1 - 0.2 - - 10 - - - -
27/03:30pm 21.3 WNW 7 9 1019.1 - 0.2 - Partly cloudy 10 - - - -
27/03:00pm 21.7 WNW 7 10 1019.2 - 0.2 - Mostly clear 10 - - - -
27/02:30pm 21.8 WNW 7 11 1019.3 - 0.2 - Partly cloudy 10 - - - -
27/02:00pm 20.9 NW 8 13 1019.5 - 0.2 - Partly cloudy 10 - - - -
27/01:30pm 21.0 NNW 8 12 1019.9 - 0.2 - Partly cloudy 10 - - - -
27/01:00pm 21.1 NW 6 11 1020.3 - 0.2 - - 10 - - - -
27/12:30pm 20.2 WNW 7 11 1021.0 - 0.0 - - 10 - - - -
27/12:00pm 19.5 WNW 6 9 1021.5 - 0.0 - - 10 - - - -
27/11:30am 18.4 WNW 7 9 1021.9 - 0.0 - - 10 - - - -
27/11:00am 17.7 NNW 7 9 1022.2 - 0.0 - - 10 - - - -
27/10:30am 16.5 NW 7 9 1022.4 - 0.0 - - 10 - - - -
27/10:00am 14.5 NW 7 8 1022.3 - 0.0 - - 10 - - - -
27/09:30am 13.1 NW 7 8 1022.3 - 0.0 - - 10 - - - -
27/09:00am 11.7 NNW 7 9 1022.1 - 0.4 - - 10 - - - -
27/08:30am 10.2 NNW 7 9 1022.1 - 0.4 - - 10 - - - -
27/08:00am 8.9 NW 7 9 1021.9 - 0.4 - - 10 - - - -
27/07:30am 9.1 NW 8 11 1021.7 - 0.4 - - 10 - - - -
27/07:00am 9.0 NW 7 9 1021.5 - 0.4 - - 10 - - - -
27/06:30am 8.8 NW 7 8 1021.2 - 0.4 - - 10 - - - -
27/06:00am 8.8 NW 7 9 1021.2 - 0.4 Recent precip. Mostly clear 10 - - - -
27/05:30am 8.8 NW 7 8 1021.2 - 0.4 - - 10 - - - -
27/05:00am 9.2 NNW 7 9 1021.1 - 0.2 - - 10 - - - -
27/04:30am 9.9 NW 7 9 1021.3 - 0.2 - - 10 - - - -
27/04:00am 10.1 NW 8 9 1021.1 - 0.2 - - 10 - - - -
27/03:30am 9.8 NW 7 8 1021.3 - 0.2 - - 10 - - - -
27/03:00am 10.2 NNW 8 10 1021.4 - 0.2 - - 10 - - - -
27/02:30am 10.1 NNW 8 9 1021.5 - 0.2 - - 10 - - - -
27/02:00am 9.7 NNW 7 8 1021.7 - 0.2 - - 10 - - - -
27/01:30am 10.2 NNW 6 7 1021.8 - 0.2 - - 10 - - - -
27/01:00am 11.4 NNW 8 9 1022.1 - 0.2 - - 10 - - - -
27/12:30am 11.5 N 8 9 1022.4 - 0.2 - - 10 - - - -
27/12:00am 11.7 NNW 8 9 1022.6 - 0.2 - - 10 - - - -
 
Date/Time
CST
Temp

°C
Wind Pressure Rain
since 9am
mm
Weather Cloud Vis
km
Sea
Height
m
Swell
Dir
 
Speed
knots
Gust
knots
hPa Trend Height
m
Period
s
Dir
26/11:30pm 11.1 NNW 8 8 1022.8 - 0.2 - - 10 - - - -
26/11:00pm 11.6 NNW 7 8 1022.8 - 0.2 - - 10 - - - -
26/10:30pm 11.7 N 7 9 1022.9 - 0.2 - - 10 - - - -
26/10:00pm 12.1 N 8 9 1022.7 - 0.2 - - 10 - - - -
26/09:30pm 12.3 NNE 8 10 1022.5 - 0.2 - - 10 - - - -
26/09:00pm 12.7 NE 7 7 1022.5 - 0.2 - - 10 - - - -
26/08:30pm 13.5 NE 7 8 1022.5 - 0.2 - - 10 - - - -
26/08:00pm 13.8 ENE 5 6 1022.4 - 0.2 - - 10 - - - -
26/07:30pm 14.1 ENE 7 7 1022.0 - 0.2 - Partly cloudy 10 - - - -
26/07:00pm 14.4 ENE 6 6 1021.9 - 0.2 - Partly cloudy 10 - - - -
26/06:30pm 14.9 ENE 5 6 1021.6 - 0.2 - - 10 - - - -
26/06:00pm 15.9 SE 5 6 1021.3 - 0.2 - Mostly clear 10 - - - -
26/05:30pm 17.1 SSE 5 7 1021.3 - 0.2 - - 10 - - - -
26/05:00pm 18.0 SSE 8 10 1021.2 - 0.2 - Partly cloudy 10 - - - -
26/04:30pm 18.7 SSE 6 7 1021.2 - 0.2 - Partly cloudy 10 - - - -
26/04:00pm 19.2 SSE 5 6 1021.1 - 0.2 - Partly cloudy 10 - - - -
26/03:30pm 19.5 S 7 10 1020.9 - 0.2 - Partly cloudy 10 - - - -
26/03:00pm 19.2 S 7 10 1020.9 - 0.2 - Cloudy 10 - - - -
26/02:30pm 20.0 WNW 7 11 1020.8 - 0.2 - Partly cloudy 10 - - - -
26/02:00pm 20.1 WNW 6 10 1021.4 - 0.2 - Partly cloudy 10 - - - -
26/01:30pm 19.5 NNW 9 12 1021.9 - 0.2 - Partly cloudy 10 - - - -
26/01:00pm 19.3 NNW 8 10 1022.3 - 0.2 - Partly cloudy 10 - - - -
26/12:30pm 17.4 NNW 7 10 1022.9 - 0.2 - Partly cloudy 10 - - - -
26/12:05pm 16.4 NW 7 9 1023.3 - 0.2 - Partly cloudy 10 - - - -
26/12:00pm 16.4 NW 8 11 1023.4 - 0.2 Recent precip. Cloudy 10 - - - -
26/11:48am 16.4 NW 9 12 1023.6 - 0.2 - Partly cloudy 7 - - - -
26/11:30am 17.6 NW 8 12 1023.7 - 0.0 - Partly cloudy 10 - - - -
26/11:00am 17.6 NW 8 10 1023.8 - 0.0 - Partly cloudy 10 - - - -
26/10:30am 16.9 WNW 9 10 1023.9 - 0.0 - Partly cloudy 10 - - - -
26/10:00am 16.4 WNW 8 10 1023.8 - 0.0 - Partly cloudy 10 - - - -
26/09:30am 15.0 WNW 7 10 1023.9 - 0.0 - Partly cloudy 10 - - - -
26/09:00am 13.8 NW 6 8 1024.0 - 0.4 - Cloudy 10 - - - -
26/08:30am 12.8 NNW 5 7 1023.8 - 0.4 - Partly cloudy 10 - - - -
26/08:00am 12.3 NW 5 5 1023.5 - 0.4 - Cloudy 10 - - - -
26/07:30am 12.3 NW 5 6 1023.1 - 0.4 - Cloudy 10 - - - -
26/07:00am 12.1 WNW 6 7 1022.8 - 0.4 - Cloudy 10 - - - -
26/06:30am 12.1 NNW 7 9 1022.4 - 0.4 - Cloudy 10 - - - -
26/06:00am 12.2 N 6 7 1022.5 - 0.4 - Cloudy 10 - - - -
26/05:30am 12.7 NNW 7 8 1022.6 - 0.4 - Partly cloudy 10 - - - -
26/05:00am 12.6 WNW 7 8 1022.7 - 0.4 - Partly cloudy 10 - - - -
26/04:30am 12.9 NNW 8 9 1022.6 - 0.2 - Partly cloudy 10 - - - -
26/04:00am 12.6 NNW 7 9 1022.9 - 0.2 - Partly cloudy 10 - - - -
26/03:30am 12.3 N 10 12 1022.9 - 0.2 - Partly cloudy 10 - - - -
26/03:00am 11.9 N 7 8 1022.8 - 0.2 - Cloudy 10 - - - -
26/02:30am 11.7 N 7 8 1023.4 - 0.2 - Partly cloudy 10 - - - -
26/02:00am 10.8 N 7 8 1023.6 - 0.2 - Partly cloudy 10 - - - -
26/01:30am 10.2 N 7 8 1023.8 - 0.2 - Partly cloudy 10 - - - -
26/01:00am 10.5 N 7 8 1023.9 - 0.2 - Cloudy 10 - - - -
26/12:30am 10.2 N 8 9 1024.0 - 0.2 - Partly cloudy 10 - - - -
26/12:00am 9.8 N 8 9 1024.3 - 0.2 - - 10 - - - -
 
Date/Time
CST
Temp

°C
Wind Pressure Rain
since 9am
mm
Weather Cloud Vis
km
Sea
Height
m
Swell
Dir
 
Speed
knots
Gust
knots
hPa Trend Height
m
Period
s
Dir
25/11:30pm 10.2 N 7 8 1024.4 - 0.2 - Partly cloudy 10 - - - -
25/11:00pm 11.4 N 6 7 1024.5 - 0.2 - Partly cloudy 10 - - - -
25/10:30pm 11.1 NNE 7 7 1024.5 - 0.2 - Partly cloudy 10 - - - -
25/10:00pm 11.4 NNE 8 9 1024.3 - 0.2 - Partly cloudy 10 - - - -
25/09:30pm 11.5 NE 8 9 1024.5 - 0.2 - Partly cloudy 10 - - - -
25/09:00pm 12.2 NE 8 9 1024.4 - 0.2 - Cloudy 10 - - - -
25/08:30pm 12.7 NE 7 8 1024.3 - 0.2 - Partly cloudy 10 - - - -
25/08:00pm 13.8 NE 6 7 1024.3 - 0.2 - Partly cloudy 10 - - - -
25/07:30pm 14.5 ESE 4 5 1024.2 - 0.2 - Partly cloudy 10 - - - -
25/07:00pm 14.8 E 4 5 1024.0 - 0.2 - Partly cloudy 10 - - - -
25/06:30pm 15.0 ESE 5 6 1023.6 - 0.2 - Partly cloudy 10 - - - -
25/06:00pm 15.4 ESE 7 8 1023.2 - 0.2 - Cloudy 10 - - - -
25/05:30pm 16.5 E 6 7 1022.8 - 0.2 - Partly cloudy 10 - - - -
25/05:00pm 17.6 ENE 8 11 1022.7 - 0.2 - Partly cloudy 10 - - - -
25/04:30pm 18.4 NE 7 9 1022.9 - 0.2 - Partly cloudy 10 - - - -
25/04:00pm 18.3 E 8 11 1022.8 - 0.2 - Partly cloudy 10 - - - -
25/03:30pm 17.5 E 9 11 1022.8 - 0.2 - Partly cloudy 10 - - - -
25/03:00pm 16.6 ENE 9 12 1023.1 - 0.2 - Cloudy 10 - - - -
25/02:30pm 17.0 NE 11 15 1023.4 - 0.2 - Partly cloudy 10 - - - -
25/02:00pm 17.1 NE 9 12 1023.5 - 0.2 - Cloudy 10 - - - -
25/01:30pm 17.0 NNE 9 12 1023.8 - 0.2 - Cloudy 10 - - - -
25/01:00pm 16.4 N 9 13 1024.3 - 0.2 - Cloudy 10 - - - -
25/12:30pm 16.3 NNW 9 13 1024.5 - 0.2 - Cloudy 10 - - - -
25/12:00pm 16.3 NNW 10 13 1024.8 - 0.2 - Cloudy 10 - - - -
25/11:30am 15.3 NNW 7 9 1024.9 - 0.2 - Cloudy 10 - - - -
25/11:00am 14.6 NW 9 12 1025.4 - 0.2 - Partly cloudy 10 - - - -
25/10:30am 13.5 NW 8 11 1025.6 - 0.2 - Partly cloudy 10 - - - -
25/10:00am 13.2 NNW 8 10 1025.5 - 0.2 - Partly cloudy 10 - - - -
25/09:30am 12.4 N 9 13 1025.5 - 0.2 - Partly cloudy 10 - - - -
25/09:00am 12.0 N 7 9 1025.2 - 2.2 Rain Cloudy 10 - - - -
25/08:30am 12.1 N 6 9 1025.1 - 2.0 - Partly cloudy 10 - - - -
25/08:00am 12.2 N 9 11 1025.0 - 1.8 - Partly cloudy 10 - - - -
25/07:30am 12.2 N 5 7 1024.8 - 1.8 - Partly cloudy 10 - - - -
25/07:00am 12.4 NNE 7 7 1024.3 - 1.8 - Partly cloudy 10 - - - -
25/06:30am 12.6 NNE 6 9 1024.1 - 1.8 - Partly cloudy 10 - - - -
25/06:00am 12.3 NNE 8 9 1024.0 - 1.8 - Cloudy 10 - - - -
25/05:30am 11.9 NNE 8 10 1023.8 - 1.8 - Partly cloudy 10 - - - -
25/05:00am 12.6 NE 8 9 1023.3 - 1.8 - Partly cloudy 10 - - - -
25/04:30am 13.4 NE 8 9 1023.5 - 1.8 - Cloudy 10 - - - -
25/04:00am 13.1 NNE 7 9 1023.8 - 1.8 - Cloudy 10 - - - -
25/03:30am 13.6 NE 9 11 1023.9 - 1.8 - Partly cloudy 10 - - - -
25/03:00am 13.8 NE 10 12 1023.8 - 1.8 - Cloudy 10 - - - -
25/02:30am 14.0 NE 10 14 1023.9 - 1.8 - Cloudy 10 - - - -
25/02:00am 13.9 NE 9 12 1024.0 - 1.8 - Cloudy 10 - - - -
25/01:30am 13.8 NE 9 10 1023.9 - 1.8 - Cloudy 10 - - - -
25/01:00am 14.1 ENE 10 12 1023.9 - 1.8 - Cloudy 10 - - - -
25/12:30am 14.1 E 8 10 1024.0 - 1.8 - Cloudy 10 - - - -
25/12:00am 14.1 E 8 9 1024.2 - 1.8 - Mostly cloudy 10 - - - -
 
Date/Time
CST
Temp

°C
Wind Pressure Rain
since 9am
mm
Weather Cloud Vis
km
Sea
Height
m
Swell
Dir
 
Speed
knots
Gust
knots
hPa Trend Height
m
Period
s
Dir
24/11:30pm 13.3 E 7 8 1024.2 - 1.8 - Cloudy 10 - - - -
24/11:00pm 13.8 E 7 8 1024.3 - 1.8 - Cloudy 10 - - - -
24/10:30pm 14.2 E 6 8 1024.3 - 1.8 - Cloudy 10 - - - -
24/10:00pm 14.2 E 7 7 1024.4 - 1.8 - Cloudy 10 - - - -
24/09:30pm 14.3 ESE 6 7 1024.4 - 1.8 - Cloudy 10 - - - -
24/09:00pm 14.2 ESE 5 6 1024.4 - 1.8 - Cloudy 10 - - - -
24/08:30pm 14.5 E 7 7 1024.1 - 1.8 - Cloudy 10 - - - -
24/08:00pm 14.4 ESE 6 7 1024.0 - 1.8 - Partly cloudy 10 - - - -

Other Formats:

Comma delimited format used in spreadsheet applications
http://www.bom.gov.au/fwo/IDS60701/IDS60701.94651.axf

JavaScript Object Notation format (JSON) in row-major order
http://www.bom.gov.au/fwo/IDS60701/IDS60701.94651.json